createdAt,value
2022-11-27T00:01:28.792Z,65.29
2022-11-27T00:03:56.977Z,65.36
2022-11-27T00:06:27.373Z,65.28
2022-11-27T00:08:59.619Z,65.31
2022-11-27T00:11:29.305Z,65.40
2022-11-27T00:14:00.618Z,65.51
2022-11-27T00:16:28.943Z,65.50
2022-11-27T00:18:56.801Z,65.33
2022-11-27T00:21:27.428Z,65.96
2022-11-27T00:23:56.956Z,66.10
2022-11-27T00:26:25.325Z,65.88
2022-11-27T00:28:54.526Z,65.86
2022-11-27T00:31:29.443Z,66.33
2022-11-27T00:34:00.344Z,65.79
2022-11-27T00:36:29.812Z,65.87
2022-11-27T00:38:57.374Z,65.92
2022-11-27T00:41:27.595Z,65.67
2022-11-27T00:43:55.799Z,65.64
2022-11-27T00:46:29.789Z,65.79
2022-11-27T00:48:58.518Z,65.86
2022-11-27T00:51:26.710Z,65.87
2022-11-27T00:53:55.015Z,65.89
2022-11-27T00:56:28.019Z,65.84
2022-11-27T00:58:55.716Z,65.76
2022-11-27T01:01:46.380Z,66.12
2022-11-27T01:04:15.775Z,66.13
2022-11-27T01:06:44.447Z,65.77
2022-11-27T01:09:15.576Z,66.12
2022-11-27T01:11:43.467Z,66.17
2022-11-27T01:14:14.981Z,66.02
2022-11-27T01:16:43.403Z,66.03
2022-11-27T01:19:13.264Z,66.18
2022-11-27T01:21:41.439Z,65.94
2022-11-27T01:24:12.172Z,66.17
2022-11-27T01:26:40.102Z,66.23
2022-11-27T01:29:07.799Z,66.11
2022-11-27T01:31:35.619Z,66.28
2022-11-27T01:34:06.296Z,66.34
2022-11-27T01:36:35.128Z,66.24
2022-11-27T01:39:03.072Z,66.30
2022-11-27T01:41:33.688Z,66.58
2022-11-27T01:44:02.388Z,66.64
2022-11-27T01:46:48.899Z,67.04
2022-11-27T01:49:25.866Z,66.48
2022-11-27T01:52:17.300Z,66.50
2022-11-27T01:55:01.356Z,66.55
2022-11-27T01:57:38.797Z,66.66
2022-11-27T02:00:10.433Z,66.98
2022-11-27T02:02:42.861Z,67.18
2022-11-27T02:05:14.599Z,66.98
2022-11-27T02:07:42.264Z,66.69
2022-11-27T02:10:10.595Z,66.96
2022-11-27T02:12:50.876Z,67.38
2022-11-27T02:15:30.265Z,66.93
2022-11-27T02:18:13.139Z,67.15
2022-11-27T02:21:03.616Z,67.26
2022-11-27T02:23:49.206Z,67.84
2022-11-27T02:26:34.927Z,68.09
2022-11-27T02:29:09.294Z,67.29
2022-11-27T02:31:36.774Z,67.20
2022-11-27T02:34:31.935Z,67.91
2022-11-27T02:37:30.459Z,68.10
2022-11-27T02:40:26.260Z,68.28
2022-11-27T02:43:02.602Z,68.09
2022-11-27T02:45:40.022Z,67.94
2022-11-27T02:48:09.545Z,67.62
2022-11-27T02:50:39.980Z,67.87
2022-11-27T02:53:14.007Z,67.88
2022-11-27T02:55:43.752Z,67.97
2022-11-27T02:58:15.964Z,67.94
2022-11-27T03:00:46.760Z,67.94
2022-11-27T03:03:18.706Z,68.00
2022-11-27T03:05:49.708Z,67.96
2022-11-27T03:08:31.098Z,68.00
2022-11-27T03:11:02.826Z,67.68
2022-11-27T03:13:32.946Z,67.84
2022-11-27T03:16:08.278Z,67.72
2022-11-27T03:18:43.055Z,67.78
2022-11-27T03:21:37.528Z,67.85
2022-11-27T03:24:07.028Z,67.26
2022-11-27T03:26:34.872Z,66.92
2022-11-27T03:29:05.132Z,66.67
2022-11-27T03:31:33.116Z,66.82
2022-11-27T03:34:01.933Z,66.47
2022-11-27T03:36:29.352Z,66.65
2022-11-27T03:38:56.923Z,66.42
2022-11-27T03:41:34.711Z,67.04
2022-11-27T03:44:41.283Z,66.78
2022-11-27T03:47:26.407Z,66.27
2022-11-27T03:50:08.721Z,66.35
2022-11-27T03:53:01.723Z,66.64
2022-11-27T03:55:38.605Z,66.71
2022-11-27T03:58:23.472Z,66.79
2022-11-27T04:00:52.967Z,66.39
2022-11-27T04:03:27.078Z,66.11
2022-11-27T04:05:54.897Z,66.34
2022-11-27T04:08:22.766Z,66.30
2022-11-27T04:10:50.351Z,66.31
2022-11-27T04:13:17.926Z,66.35
2022-11-27T04:15:45.548Z,66.24
2022-11-27T04:18:13.088Z,66.22
2022-11-27T04:20:40.631Z,66.22
2022-11-27T04:23:08.126Z,66.11
2022-11-27T04:25:35.621Z,66.04
2022-11-27T04:28:03.151Z,65.89
2022-11-27T04:30:30.580Z,65.78
2022-11-27T04:32:58.086Z,65.90
2022-11-27T04:35:25.691Z,65.90
2022-11-27T04:37:53.161Z,65.93
2022-11-27T04:40:20.734Z,65.67
2022-11-27T04:42:48.379Z,65.31
2022-11-27T04:45:15.930Z,65.67
2022-11-27T04:47:43.555Z,65.52
2022-11-27T04:50:11.250Z,65.78
2022-11-27T04:52:38.820Z,65.87
2022-11-27T04:55:06.868Z,65.64
2022-11-27T04:57:34.415Z,65.93
2022-11-27T05:00:02.111Z,65.96
2022-11-27T05:02:30.965Z,65.83
2022-11-27T05:04:58.527Z,65.68
2022-11-27T05:07:26.089Z,65.49
2022-11-27T05:09:53.712Z,65.32
2022-11-27T05:12:21.195Z,65.26
2022-11-27T05:14:48.798Z,65.51
2022-11-27T05:17:16.515Z,65.93
2022-11-27T05:19:44.135Z,65.79
2022-11-27T05:22:11.558Z,66.02
2022-11-27T05:24:39.257Z,65.55
2022-11-27T05:27:07.018Z,65.85
2022-11-27T05:29:34.498Z,65.90
2022-11-27T05:32:02.069Z,66.09
2022-11-27T05:34:29.542Z,66.24
2022-11-27T05:36:57.093Z,66.11
2022-11-27T05:39:24.824Z,66.32
2022-11-27T05:41:52.387Z,66.54
2022-11-27T05:44:19.862Z,66.23
2022-11-27T05:46:47.415Z,66.59
2022-11-27T05:49:16.301Z,66.51
2022-11-27T05:51:50.699Z,66.71
2022-11-27T05:54:19.665Z,66.91
2022-11-27T05:56:47.200Z,66.73
2022-11-27T05:59:15.205Z,67.00
2022-11-27T06:01:43.267Z,67.28
2022-11-27T06:04:10.912Z,67.10
2022-11-27T06:06:38.363Z,67.34
2022-11-27T06:09:09.413Z,67.32
2022-11-27T06:11:40.144Z,67.04
2022-11-27T06:14:09.082Z,67.29
2022-11-27T06:16:37.267Z,67.00
2022-11-27T06:19:04.946Z,67.29
2022-11-27T06:21:32.448Z,67.66
2022-11-27T06:23:59.997Z,67.51
2022-11-27T06:26:30.412Z,67.49
2022-11-27T06:28:59.847Z,67.84
2022-11-27T06:31:30.815Z,67.73
2022-11-27T06:33:59.051Z,67.70
2022-11-27T06:36:35.268Z,67.79
2022-11-27T06:39:04.613Z,67.62
2022-11-27T06:41:32.604Z,67.53
2022-11-27T06:44:01.357Z,67.29
2022-11-27T06:46:30.306Z,67.37
2022-11-27T06:48:58.926Z,67.42
2022-11-27T06:51:29.647Z,67.45
2022-11-27T06:53:59.692Z,67.90
2022-11-27T06:56:29.763Z,67.41
2022-11-27T06:58:59.893Z,67.48
2022-11-27T07:01:29.147Z,67.33
2022-11-27T07:03:57.331Z,67.47
2022-11-27T07:06:26.761Z,67.42
2022-11-27T07:08:55.503Z,67.88
2022-11-27T07:11:26.034Z,67.96
2022-11-27T07:13:55.966Z,67.75
2022-11-27T07:16:23.595Z,67.27
2022-11-27T07:18:53.398Z,67.18
2022-11-27T07:21:21.756Z,67.12
2022-11-27T07:23:49.366Z,67.27
2022-11-27T07:26:22.282Z,67.54
2022-11-27T07:28:50.464Z,67.14
2022-11-27T07:31:20.539Z,67.18
2022-11-27T07:33:48.526Z,66.92
2022-11-27T07:36:19.543Z,66.72
2022-11-27T07:38:47.559Z,66.75
2022-11-27T07:41:15.928Z,66.63
2022-11-27T07:43:45.366Z,66.78
2022-11-27T07:46:19.578Z,66.79
2022-11-27T07:48:47.402Z,66.38
2022-11-27T07:51:18.730Z,66.67
2022-11-27T07:53:46.455Z,66.68
2022-11-27T07:56:15.802Z,66.96
2022-11-27T07:58:43.759Z,66.68
2022-11-27T08:01:14.446Z,66.64
2022-11-27T08:03:45.120Z,66.26
2022-11-27T08:06:38.990Z,66.69
2022-11-27T08:09:06.603Z,66.63
2022-11-27T08:11:35.350Z,66.47
2022-11-27T08:14:06.532Z,66.89
2022-11-27T08:16:35.523Z,66.42
2022-11-27T08:19:03.195Z,66.49
2022-11-27T08:21:30.842Z,66.47
2022-11-27T08:23:58.687Z,66.50
2022-11-27T08:26:27.895Z,66.30
2022-11-27T08:28:56.571Z,66.38
2022-11-27T08:31:24.595Z,66.27
2022-11-27T08:33:52.313Z,65.98
2022-11-27T08:36:19.779Z,65.81
2022-11-27T08:38:50.282Z,65.82
2022-11-27T08:41:17.932Z,65.55
2022-11-27T08:43:45.499Z,66.05
2022-11-27T08:46:13.285Z,65.61
2022-11-27T08:48:41.940Z,65.63
2022-11-27T08:51:12.137Z,66.00
2022-11-27T08:53:40.504Z,65.53
2022-11-27T08:56:25.519Z,65.64
2022-11-27T08:58:53.486Z,65.53
2022-11-27T09:01:30.316Z,65.20
2022-11-27T09:03:58.066Z,65.18
2022-11-27T09:06:33.462Z,65.10
2022-11-27T09:09:04.034Z,65.13
2022-11-27T09:11:32.926Z,65.15
2022-11-27T09:14:01.378Z,65.21
2022-11-27T09:16:30.326Z,64.75
2022-11-27T09:18:58.692Z,64.65
2022-11-27T09:21:28.738Z,64.71
2022-11-27T09:24:00.226Z,64.62
2022-11-27T09:26:29.204Z,64.42
2022-11-27T09:28:58.778Z,64.05
2022-11-27T09:31:26.707Z,64.19
2022-11-27T09:33:54.377Z,64.35
2022-11-27T09:36:24.410Z,64.73
2022-11-27T09:38:54.164Z,64.42
2022-11-27T09:41:42.631Z,64.31
2022-11-27T09:44:16.984Z,64.50
2022-11-27T09:46:45.396Z,64.33
2022-11-27T09:49:19.261Z,64.20
2022-11-27T09:52:04.126Z,64.25
2022-11-27T09:54:50.861Z,64.64
2022-11-27T09:57:24.269Z,64.70
2022-11-27T09:59:53.803Z,64.23
2022-11-27T10:02:33.038Z,64.26
2022-11-27T10:05:17.447Z,64.54
2022-11-27T10:08:11.141Z,64.26
2022-11-27T10:10:55.042Z,64.65
2022-11-27T10:13:43.280Z,64.58
2022-11-27T10:16:13.624Z,64.77
2022-11-27T10:18:48.034Z,64.32
2022-11-27T10:21:25.980Z,64.49
2022-11-27T10:24:19.947Z,63.86
2022-11-27T10:26:49.559Z,63.43
2022-11-27T10:29:47.227Z,63.00
2022-11-27T10:32:54.751Z,63.38
2022-11-27T10:35:24.951Z,63.14
2022-11-27T10:38:13.186Z,63.23
2022-11-27T10:40:43.990Z,62.66
2022-11-27T10:43:20.081Z,62.72
2022-11-27T10:46:13.292Z,62.83
2022-11-27T10:48:43.533Z,63.26
2022-11-27T10:51:17.903Z,63.04
2022-11-27T10:53:50.060Z,62.78
2022-11-27T10:56:27.589Z,62.98
2022-11-27T10:59:00.738Z,62.35
2022-11-27T11:01:40.884Z,62.23
2022-11-27T11:04:31.694Z,62.83
2022-11-27T11:06:58.560Z,63.33
2022-11-27T11:09:30.085Z,63.22
2022-11-27T11:12:25.648Z,63.66
2022-11-27T11:14:55.420Z,63.27
2022-11-27T11:17:28.534Z,63.66
2022-11-27T11:19:56.200Z,63.40
2022-11-27T11:22:24.676Z,63.72
2022-11-27T11:24:53.771Z,63.63
2022-11-27T11:27:30.458Z,63.62
2022-11-27T11:30:04.457Z,63.78
2022-11-27T11:32:40.291Z,64.43
2022-11-27T11:35:28.963Z,65.06
2022-11-27T11:37:57.470Z,64.37
2022-11-27T11:40:31.672Z,64.61
2022-11-27T11:43:00.624Z,64.13
2022-11-27T11:45:32.932Z,64.38
2022-11-27T11:48:02.612Z,64.22
2022-11-27T11:50:41.295Z,64.07
2022-11-27T11:53:31.602Z,64.10
2022-11-27T11:56:14.126Z,64.05
2022-11-27T11:58:54.120Z,63.45
2022-11-27T12:01:38.646Z,63.65
2022-11-27T12:04:24.602Z,63.44
2022-11-27T12:07:30.915Z,63.44
2022-11-27T12:10:21.327Z,63.13
2022-11-27T12:13:04.947Z,63.34
2022-11-27T12:15:44.818Z,63.40
2022-11-27T12:18:25.486Z,64.04
2022-11-27T12:21:11.749Z,64.12
2022-11-27T12:23:59.609Z,64.75
2022-11-27T12:26:57.982Z,64.89
2022-11-27T12:29:28.574Z,64.65
2022-11-27T12:32:14.378Z,64.95
2022-11-27T12:35:07.436Z,64.69
2022-11-27T12:38:14.510Z,64.68
2022-11-27T12:40:44.751Z,64.64
2022-11-27T12:43:23.839Z,65.12
2022-11-27T12:46:02.846Z,65.20
2022-11-27T12:48:41.653Z,65.68
2022-11-27T12:51:16.310Z,64.93
2022-11-27T12:53:54.708Z,65.61
2022-11-27T12:56:39.311Z,65.49
2022-11-27T12:59:06.854Z,64.80
2022-11-27T13:01:41.526Z,65.38
2022-11-27T13:04:26.448Z,65.76
2022-11-27T13:07:10.514Z,66.06
2022-11-27T13:09:46.161Z,66.16
2022-11-27T13:12:24.767Z,66.86
2022-11-27T13:15:00.643Z,66.67
2022-11-27T13:17:38.008Z,66.77
2022-11-27T13:20:14.969Z,66.75
2022-11-27T13:22:43.156Z,66.84
2022-11-27T13:25:14.843Z,66.65
2022-11-27T13:27:46.956Z,66.60
2022-11-27T13:30:26.569Z,66.92
2022-11-27T13:32:57.454Z,66.73
2022-11-27T13:35:30.580Z,67.32
2022-11-27T13:38:23.683Z,67.79
2022-11-27T13:40:56.085Z,67.26
2022-11-27T13:43:29.037Z,67.87
2022-11-27T13:46:32.427Z,68.49
2022-11-27T13:49:05.850Z,67.59
2022-11-27T13:51:36.666Z,67.84
2022-11-27T13:54:13.146Z,68.14
2022-11-27T13:56:41.165Z,68.09
2022-11-27T13:59:22.641Z,68.48
2022-11-27T14:02:01.852Z,68.65
2022-11-27T14:04:33.001Z,68.49
2022-11-27T14:07:07.200Z,68.43
2022-11-27T14:09:45.743Z,68.66
2022-11-27T14:12:27.178Z,68.41
2022-11-27T14:15:10.292Z,68.33
2022-11-27T14:17:50.138Z,68.92
2022-11-27T14:20:17.659Z,68.36
2022-11-27T14:23:10.484Z,68.48
2022-11-27T14:25:37.279Z,68.67
2022-11-27T14:28:36.338Z,69.40
2022-11-27T14:31:05.158Z,68.74
2022-11-27T14:33:47.404Z,68.72
2022-11-27T14:36:25.234Z,69.63
2022-11-27T14:38:53.185Z,68.62
2022-11-27T14:41:23.977Z,68.53
2022-11-27T14:44:01.388Z,68.63
2022-11-27T14:46:31.191Z,68.07
2022-11-27T14:48:58.885Z,67.97
2022-11-27T14:51:33.003Z,68.41
2022-11-27T14:54:03.714Z,67.97
2022-11-27T14:56:37.452Z,68.30
2022-11-27T14:59:06.763Z,68.12
2022-11-27T15:01:37.160Z,68.17
2022-11-27T15:04:07.463Z,67.96
2022-11-27T15:06:43.870Z,68.04
2022-11-27T15:09:35.111Z,68.13
2022-11-27T15:12:08.575Z,68.15
2022-11-27T15:14:36.435Z,67.81
2022-11-27T15:17:06.283Z,68.08
2022-11-27T15:19:37.139Z,67.98
2022-11-27T15:22:05.536Z,67.58
2022-11-27T15:24:36.020Z,67.99
2022-11-27T15:27:15.399Z,67.92
2022-11-27T15:30:00.905Z,67.85
2022-11-27T15:32:57.043Z,68.00
2022-11-27T15:35:30.025Z,68.18
2022-11-27T15:38:04.372Z,67.97
2022-11-27T15:40:40.761Z,68.29
2022-11-27T15:43:13.396Z,68.21
2022-11-27T15:45:44.815Z,67.99
2022-11-27T15:48:16.314Z,67.84
2022-11-27T15:50:48.404Z,67.80
2022-11-27T15:53:19.268Z,67.85
2022-11-27T15:55:46.907Z,68.08
2022-11-27T15:58:15.543Z,68.25
2022-11-27T16:00:43.193Z,68.11
2022-11-27T16:03:10.733Z,68.16
2022-11-27T16:05:38.343Z,68.42
2022-11-27T16:08:06.617Z,68.13
2022-11-27T16:10:43.663Z,68.16
2022-11-27T16:13:11.306Z,68.19
2022-11-27T16:15:38.913Z,67.62
2022-11-27T16:18:07.354Z,67.64
2022-11-27T16:20:34.898Z,67.24
2022-11-27T16:23:02.513Z,67.18
2022-11-27T16:25:30.146Z,67.96
2022-11-27T16:28:02.535Z,67.43
2022-11-27T16:30:31.397Z,67.30
2022-11-27T16:32:59.105Z,67.65
2022-11-27T16:35:26.929Z,67.87
2022-11-27T16:37:54.506Z,67.89
2022-11-27T16:40:22.465Z,68.07
2022-11-27T16:42:49.990Z,68.32
2022-11-27T16:45:19.067Z,67.80
2022-11-27T16:47:46.630Z,67.24
2022-11-27T16:50:14.253Z,67.51
2022-11-27T16:52:44.751Z,67.21
2022-11-27T16:55:13.103Z,67.27
2022-11-27T16:57:40.823Z,67.08
2022-11-27T17:00:08.652Z,67.11
2022-11-27T17:02:36.513Z,67.27
2022-11-27T17:05:04.672Z,67.13
2022-11-27T17:07:32.555Z,67.18
2022-11-27T17:10:00.336Z,67.15
2022-11-27T17:12:27.949Z,67.21
2022-11-27T17:14:55.523Z,67.10
2022-11-27T17:17:23.335Z,67.10
2022-11-27T17:19:55.124Z,66.97
2022-11-27T17:22:22.973Z,67.25
2022-11-27T17:24:51.896Z,67.22
2022-11-27T17:27:22.187Z,67.01
2022-11-27T17:29:52.819Z,66.92
2022-11-27T17:32:20.578Z,67.32
2022-11-27T17:34:49.194Z,67.26
2022-11-27T17:37:19.922Z,66.98
2022-11-27T17:39:48.061Z,67.04
2022-11-27T17:42:21.049Z,66.78
2022-11-27T17:44:52.388Z,67.36
2022-11-27T17:47:20.105Z,67.58
2022-11-27T17:49:49.921Z,67.74
2022-11-27T17:52:17.885Z,67.62
2022-11-27T17:54:45.409Z,67.69
2022-11-27T17:57:13.573Z,67.59
2022-11-27T17:59:41.647Z,67.76
2022-11-27T18:02:11.863Z,67.42
2022-11-27T18:04:40.523Z,67.54
2022-11-27T18:07:08.441Z,67.60
2022-11-27T18:09:36.285Z,67.38
2022-11-27T18:12:06.457Z,67.04
2022-11-27T18:14:35.453Z,67.45
2022-11-27T18:17:05.210Z,67.43
2022-11-27T18:19:33.177Z,66.91
2022-11-27T18:22:00.923Z,66.98
2022-11-27T18:24:28.506Z,66.88
2022-11-27T18:27:11.570Z,67.13
2022-11-27T18:29:42.631Z,67.36
2022-11-27T18:32:12.187Z,67.35
2022-11-27T18:34:40.530Z,67.31
2022-11-27T18:37:09.021Z,66.78
2022-11-27T18:39:37.351Z,66.73
2022-11-27T18:42:05.396Z,66.89
2022-11-27T18:44:39.513Z,66.97
2022-11-27T18:47:10.858Z,66.58
2022-11-27T18:49:40.093Z,66.77
2022-11-27T18:52:08.809Z,66.67
2022-11-27T18:54:37.414Z,66.97
2022-11-27T18:57:07.235Z,66.96
2022-11-27T18:59:35.558Z,67.18
2022-11-27T19:02:04.928Z,66.90
2022-11-27T19:04:36.002Z,67.02
2022-11-27T19:07:04.040Z,66.75
2022-11-27T19:09:31.803Z,67.31
2022-11-27T19:11:59.541Z,67.66
2022-11-27T19:14:27.239Z,68.18
2022-11-27T19:16:54.847Z,68.20
2022-11-27T19:19:53.320Z,67.86
2022-11-27T19:22:12.773Z,67.71
2022-11-27T19:24:40.835Z,67.56
2022-11-27T19:27:08.475Z,67.88
2022-11-27T19:29:36.481Z,67.93
2022-11-27T19:32:05.075Z,67.94
2022-11-27T19:34:32.907Z,67.98
2022-11-27T19:37:00.846Z,68.15
2022-11-27T19:39:29.100Z,68.36
2022-11-27T19:41:58.105Z,68.10
2022-11-27T19:44:26.410Z,68.22
2022-11-27T19:46:54.163Z,67.93
2022-11-27T19:49:21.940Z,67.60
2022-11-27T19:51:49.943Z,67.79
2022-11-27T19:54:20.653Z,68.01
2022-11-27T19:56:49.572Z,68.30
2022-11-27T19:59:22.872Z,68.28
2022-11-27T20:01:53.964Z,68.38
2022-11-27T20:04:26.490Z,68.28
2022-11-27T20:06:54.236Z,68.25
2022-11-27T20:09:21.962Z,68.13
2022-11-27T20:11:49.617Z,68.22
2022-11-27T20:14:17.722Z,68.18
2022-11-27T20:16:45.645Z,68.49
2022-11-27T20:19:13.513Z,68.67
2022-11-27T20:21:42.324Z,68.93
2022-11-27T20:24:10.159Z,68.41
2022-11-27T20:26:42.391Z,68.61
2022-11-27T20:29:11.590Z,68.84
2022-11-27T20:31:41.614Z,68.79
2022-11-27T20:34:17.184Z,68.75
2022-11-27T20:36:44.942Z,68.55
2022-11-27T20:39:17.685Z,68.30
2022-11-27T20:41:49.042Z,68.86
2022-11-27T20:44:17.672Z,68.95
2022-11-27T20:46:45.380Z,69.09
2022-11-27T20:49:14.116Z,69.80
2022-11-27T20:51:42.507Z,68.93
2022-11-27T20:54:11.354Z,68.95
2022-11-27T20:56:46.407Z,68.93
2022-11-27T20:59:14.075Z,69.01
2022-11-27T21:01:42.119Z,69.80
2022-11-27T21:04:22.279Z,69.66
2022-11-27T21:06:50.940Z,69.26
2022-11-27T21:09:20.626Z,69.60
2022-11-27T21:11:49.025Z,69.67
2022-11-27T21:14:17.363Z,70.02
2022-11-27T21:16:48.839Z,70.14
2022-11-27T21:19:27.658Z,70.66
2022-11-27T21:21:57.270Z,70.00
2022-11-27T21:24:28.021Z,69.68
2022-11-27T21:26:56.706Z,69.87
2022-11-27T21:29:27.563Z,69.69
2022-11-27T21:31:57.220Z,69.63
2022-11-27T21:34:25.774Z,69.75
2022-11-27T21:36:53.540Z,69.67
2022-11-27T21:39:21.260Z,69.92
2022-11-27T21:41:50.889Z,70.01
2022-11-27T21:44:21.630Z,69.87
2022-11-27T21:46:49.824Z,69.91
2022-11-27T21:49:20.581Z,70.10
2022-11-27T21:51:52.797Z,70.05
2022-11-27T21:54:22.478Z,69.87
2022-11-27T21:56:53.667Z,70.21
2022-11-27T21:59:21.629Z,70.09
2022-11-27T22:01:49.414Z,69.94
2022-11-27T22:04:17.155Z,70.16
2022-11-27T22:06:45.531Z,69.96
2022-11-27T22:09:15.712Z,69.84
2022-11-27T22:11:45.230Z,70.08
2022-11-27T22:14:15.025Z,70.21
2022-11-27T22:16:46.413Z,70.34
2022-11-27T22:19:16.627Z,70.51
2022-11-27T22:21:45.112Z,70.57
2022-11-27T22:24:18.880Z,70.34
2022-11-27T22:26:51.236Z,70.95
2022-11-27T22:29:18.944Z,70.54
2022-11-27T22:31:47.187Z,71.03
2022-11-27T22:34:16.520Z,71.26
2022-11-27T22:36:44.648Z,70.95
2022-11-27T22:39:12.825Z,70.69
2022-11-27T22:41:41.482Z,71.30
2022-11-27T22:44:14.251Z,71.67
2022-11-27T22:46:42.699Z,71.29
2022-11-27T22:49:13.415Z,71.26
2022-11-27T22:51:41.677Z,71.06
2022-11-27T22:54:12.012Z,71.82
2022-11-27T22:56:40.022Z,71.38
2022-11-27T23:01:55.772Z,71.35
2022-11-27T23:04:23.425Z,71.46
2022-11-27T23:06:51.359Z,71.62
2022-11-27T23:09:19.074Z,71.38
2022-11-27T23:11:47.100Z,71.59
2022-11-27T23:14:14.864Z,71.56
2022-11-27T23:16:42.716Z,71.26
2022-11-27T23:19:11.301Z,70.98
2022-11-27T23:21:39.708Z,70.78
2022-11-27T23:24:10.511Z,70.70
2022-11-27T23:26:38.585Z,71.42
2022-11-27T23:29:06.057Z,71.59
2022-11-27T23:31:35.392Z,71.64
2022-11-27T23:34:07.685Z,71.95
2022-11-27T23:36:36.338Z,71.56
2022-11-27T23:39:07.109Z,71.68
2022-11-27T23:41:34.920Z,71.75
2022-11-27T23:44:02.495Z,71.51
2022-11-27T23:46:30.731Z,71.53
2022-11-27T23:48:59.970Z,71.43
2022-11-27T23:51:30.693Z,71.30
2022-11-27T23:53:58.867Z,71.41
2022-11-27T23:56:29.981Z,71.49
2022-11-27T23:58:58.177Z,71.36
